• Join FlightAware (Why Join?)
  • Login
  • US Flag 
09:48AM EDT


 

Airport Tracker/Info


-or-


 

Live Flight TrackerFlight Track Log ✈ FLG3432 ✈ 12-Aug-2013 ✈ KDTW - KIND

Flight Track Log - Related Links

Times and Time Zones

All times are in EDT time to prevent confusion due to time zone crossing. See the FLG3432 flight status page for this flight to view local times or setup timezone preferences in your user account.

Time Position Orientation Groundspeed Altitude Reporting Facility
EDT Latitude Longitude Course Direction KTS MPH feet Rate Location/Type
12:28PM 42.2036 -83.3556 211° Southwest 146 168 1,300  Level Cleveland Center
12:29PM 42.1739 -83.3794 211° Southwest 185 213 2,700 1,860 Climbing Cleveland Center
12:30PM 42.1144 -83.4217 208° Southwest 249 287 5,000 2,460 Climbing Cleveland Center
12:31PM 42.0528 -83.4719 211° Southwest 258 297 8,000 2,580 Climbing Cleveland Center
12:32PM 41.9847 -83.5275 211° Southwest 289 333 10,300 2,220 Climbing Cleveland Center
12:33PM 41.8844 -83.6150 213° Southwest 310 357 13,400 2,220 Climbing Cleveland Center
12:34PM 41.8075 -83.6811 213° Southwest 315 362 15,700 2,040 Climbing Cleveland Center
12:35PM 41.7286 -83.7494 213° Southwest 332 382 17,500 1,680 Climbing Cleveland Center
12:36PM 41.6472 -83.8206 213° Southwest 342 394 19,100 1,200 Climbing Cleveland Center
12:37PM 41.5619 -83.8886 211° Southwest 356 410 20,000 420 Climbing Cleveland Center
12:38PM 41.4725 -83.9561 209° Southwest 362 417 20,000  Level Cleveland Center
12:39PM 41.4303 -83.9903 211° Southwest 370 426 20,000  Level Chicago Center
12:40PM 41.3192 -84.0772 210° Southwest 385 443 20,000  Level Chicago Center
12:41PM 41.2356 -84.1689 220° Southwest 393 452 20,000  Level Chicago Center
12:42PM 41.2033 -84.3056 253° West 388 447 20,000  Level Chicago Center
12:43PM 41.1694 -84.4433 252° West 389 448 20,000  Level Chicago Center
12:44PM 41.1361 -84.5753 251° West 380 437 20,000  Level Chicago Center
12:45PM 41.1039 -84.7053 252° West 373 429 20,000  Level Chicago Center
12:46PM 41.0458 -84.8511 242° Southwest 382 440 20,000  Level Chicago Center
12:47PM 40.9458 -84.9181 207° Southwest 401 461 20,000  Level Chicago Center
12:48PM 40.8456 -84.9828 206° Southwest 403 464 20,000  Level Chicago Center
12:50PM 40.7475 -85.0506 208° Southwest 398 458 20,000  Level Chicago Center
12:51PM 40.6436 -85.1222 208° Southwest 394 453 20,000  Level Chicago Center
12:52PM 40.5469 -85.1858 207° Southwest 392 451 20,000 -540 Level Chicago Center
12:53PM 40.4494 -85.2519 207° Southwest 392 451 19,000 -1,380 Descending Chicago Center
12:54PM 40.3481 -85.3206 207° Southwest 403 464 17,300 -1,920 Descending Indianapolis Center
12:55PM 40.2525 -85.3842 207° Southwest 392 451 15,300 -1,980 Descending Indianapolis Center
12:56PM 40.1986 -85.4831 235° Southwest 344 396 13,300 -1,800 Descending Indianapolis Center
12:57PM 40.1553 -85.5861 241° Southwest 328 377 11,700 -1,140 Descending Indianapolis Center
12:58PM 40.0992 -85.6969 237° Southwest 311 358 11,000 -540 Descending Indianapolis Center
12:59PM 40.0489 -85.7886 234° Southwest 311 358 10,600 -840 Descending Indianapolis Center
01:00PM 40.0039 -85.8742 236° Southwest 294 338 9,300 -1,560 Descending Indianapolis Center
01:01PM 39.9606 -85.9536 235° Southwest 275 316 7,500 -1,740 Descending Indianapolis Center
01:02PM 39.9183 -86.0333 235° Southwest 271 312 5,800 -1,680 Descending Indianapolis Center
01:03PM 39.8736 -86.1081 232° Southwest 266 306 4,100 -1,080 Descending Indianapolis Center
01:04PM 39.8269 -86.1664 224° Southwest 251 289 3,600 -900 Descending Indianapolis Center
01:05PM 39.7814 -86.2253 225° Southwest 216 249 2,300 -1,020 Descending Indianapolis Center
01:06PM 39.7514 -86.2631 224° Southwest 177 204 1,500 -780 Descending Indianapolis Center
01:07PM 39.7219 -86.3008 225° Southwest 152 175 800 -720 Descending Indianapolis Center